createdAt,value
2018-12-18T00:00:02.457Z,0.50
2018-12-18T00:02:30.910Z,0.50
2018-12-18T00:05:02.356Z,0.50
2018-12-18T00:07:30.813Z,0.50
2018-12-18T00:09:59.268Z,0.60
2018-12-18T00:12:27.726Z,0.50
2018-12-18T00:14:56.194Z,0.40
2018-12-18T00:17:24.986Z,0.50
2018-12-18T00:19:53.454Z,0.40
2018-12-18T00:22:21.910Z,0.40
2018-12-18T00:24:50.362Z,0.50
2018-12-18T00:27:18.810Z,0.50
2018-12-18T00:29:47.267Z,0.50
2018-12-18T00:32:15.726Z,0.40
2018-12-18T00:34:44.195Z,0.40
2018-12-18T00:37:12.785Z,0.40
2018-12-18T00:39:41.234Z,0.30
2018-12-18T00:42:09.698Z,0.30
2018-12-18T00:44:38.169Z,0.30
2018-12-18T00:47:06.610Z,0.20
2018-12-18T00:49:35.053Z,0.20
2018-12-18T00:52:03.510Z,0.20
2018-12-18T00:54:31.957Z,0.20
2018-12-18T00:57:00.413Z,0.20
2018-12-18T00:59:28.870Z,0.20
2018-12-18T01:02:00.685Z,0.20
2018-12-18T01:04:29.302Z,0.20
2018-12-18T01:06:57.748Z,0.30
2018-12-18T01:09:26.210Z,0.30
2018-12-18T01:11:54.664Z,0.30
2018-12-18T01:14:23.122Z,0.30
2018-12-18T01:16:51.582Z,0.40
2018-12-18T01:19:20.035Z,0.30
2018-12-18T01:21:48.498Z,0.30
2018-12-18T01:24:17.202Z,0.30
2018-12-18T01:26:45.661Z,0.30
2018-12-18T01:29:14.130Z,0.30
2018-12-18T01:31:42.591Z,0.30
2018-12-18T01:34:11.038Z,0.30
2018-12-18T01:36:39.482Z,0.50
2018-12-18T01:39:07.942Z,0.40
2018-12-18T01:41:36.406Z,0.40
2018-12-18T01:44:04.977Z,0.40
2018-12-18T01:46:33.430Z,0.40
2018-12-18T01:49:01.870Z,0.30
2018-12-18T01:51:30.452Z,0.20
2018-12-18T01:53:58.902Z,0.30
2018-12-18T01:56:27.359Z,0.40
2018-12-18T01:58:55.834Z,0.30
2018-12-18T02:01:24.283Z,0.20
2018-12-18T02:03:52.742Z,0.30
2018-12-18T02:06:21.203Z,0.30
2018-12-18T02:08:49.662Z,0.40
2018-12-18T02:11:18.109Z,0.40
2018-12-18T02:13:46.554Z,0.30
2018-12-18T02:16:15.021Z,0.30
2018-12-18T02:18:43.475Z,0.30
2018-12-18T02:21:12.309Z,0.30
2018-12-18T02:23:40.754Z,0.40
2018-12-18T02:26:09.207Z,0.30
2018-12-18T02:28:37.661Z,0.20
2018-12-18T02:31:06.117Z,0.20
2018-12-18T02:33:34.564Z,0.20
2018-12-18T02:36:03.023Z,0.20
2018-12-18T02:38:31.618Z,0.30
2018-12-18T02:41:00.065Z,0.30
2018-12-18T02:43:29.416Z,0.40
2018-12-18T02:45:57.862Z,0.40
2018-12-18T02:48:26.788Z,0.40
2018-12-18T02:50:56.178Z,0.30
2018-12-18T02:53:24.682Z,0.30
2018-12-18T02:55:53.263Z,0.30
2018-12-18T02:58:21.711Z,0.30
2018-12-18T03:00:50.179Z,0.30
2018-12-18T03:03:18.637Z,0.20
2018-12-18T03:05:47.094Z,0.10
2018-12-18T03:08:15.582Z,0.10
2018-12-18T03:10:44.032Z,0.10
2018-12-18T03:13:12.622Z,0.20
2018-12-18T03:15:41.079Z,0.10
2018-12-18T03:18:09.610Z,0.10
2018-12-18T03:20:38.093Z,0.10
2018-12-18T03:23:06.534Z,0.20
2018-12-18T03:25:34.997Z,0.10
2018-12-18T03:28:03.463Z,0.10
2018-12-18T03:30:31.927Z,0.10
2018-12-18T03:33:00.389Z,0.10
2018-12-18T03:35:28.854Z,0.00
2018-12-18T03:37:57.312Z,0.00
2018-12-18T03:40:25.769Z,-0.10
2018-12-18T03:42:54.212Z,0.10
2018-12-18T03:45:22.670Z,0.00
2018-12-18T03:47:51.113Z,0.10
2018-12-18T03:50:19.562Z,0.00
2018-12-18T03:52:48.018Z,0.10
2018-12-18T03:55:16.474Z,0.00
2018-12-18T03:57:44.937Z,0.10
2018-12-18T04:00:13.417Z,0.10
2018-12-18T04:02:41.974Z,0.10
2018-12-18T04:05:10.442Z,0.10
2018-12-18T04:07:38.894Z,0.00
2018-12-18T04:10:08.225Z,0.00
2018-12-18T04:12:36.690Z,0.00
2018-12-18T04:15:05.694Z,0.10
2018-12-18T04:17:34.248Z,0.00
2018-12-18T04:20:02.781Z,0.10
2018-12-18T04:22:31.234Z,0.00
2018-12-18T04:24:59.702Z,0.00
2018-12-18T04:27:28.178Z,-0.20
2018-12-18T04:29:56.633Z,-0.20
2018-12-18T04:32:25.097Z,-0.10
2018-12-18T04:34:53.560Z,-0.10
2018-12-18T04:37:22.250Z,-0.10
2018-12-18T04:39:50.712Z,-0.10
2018-12-18T04:42:19.163Z,0.00
2018-12-18T04:44:47.623Z,0.00
2018-12-18T04:47:16.092Z,0.00
2018-12-18T04:49:44.694Z,-0.20
2018-12-18T04:52:13.160Z,-0.20
2018-12-18T04:54:41.629Z,-0.20
2018-12-18T04:57:10.097Z,-0.30
2018-12-18T04:59:38.560Z,-0.20
2018-12-18T05:02:07.022Z,-0.20
2018-12-18T05:04:35.517Z,0.00
2018-12-18T05:07:03.999Z,-0.10
2018-12-18T05:09:32.462Z,-0.20
2018-12-18T05:12:00.948Z,-0.20
2018-12-18T05:14:29.422Z,-0.20
2018-12-18T05:16:57.877Z,-0.20
2018-12-18T05:19:26.345Z,-0.20
2018-12-18T05:21:55.124Z,-0.10
2018-12-18T05:24:23.589Z,-0.10
2018-12-18T05:26:52.056Z,-0.10
2018-12-18T05:29:20.521Z,-0.10
2018-12-18T05:31:48.999Z,-0.10
2018-12-18T05:34:17.469Z,-0.10
2018-12-18T05:36:45.995Z,0.00
2018-12-18T05:39:14.466Z,0.00
2018-12-18T05:41:42.942Z,-0.10
2018-12-18T05:44:11.420Z,-0.10
2018-12-18T05:46:39.882Z,-0.10
2018-12-18T05:49:08.325Z,-0.10
2018-12-18T05:51:36.804Z,-0.20
2018-12-18T05:54:05.598Z,-0.30
2018-12-18T05:56:34.069Z,-0.20
2018-12-18T05:59:02.525Z,-0.20
2018-12-18T06:01:30.984Z,-0.30
2018-12-18T06:03:59.434Z,-0.20
2018-12-18T06:06:27.898Z,-0.20
2018-12-18T06:08:56.675Z,-0.30
2018-12-18T06:11:25.192Z,-0.30
2018-12-18T06:13:53.655Z,-0.20
2018-12-18T06:16:22.156Z,-0.30
2018-12-18T06:18:50.693Z,-0.20
2018-12-18T06:21:19.491Z,-0.20
2018-12-18T06:23:47.971Z,-0.20
2018-12-18T06:26:16.434Z,-0.10
2018-12-18T06:28:44.882Z,-0.10
2018-12-18T06:31:13.362Z,-0.10
2018-12-18T06:33:41.824Z,-0.10
2018-12-18T06:36:10.275Z,-0.20
2018-12-18T06:38:38.750Z,-0.10
2018-12-18T06:41:07.302Z,-0.10
2018-12-18T06:43:35.761Z,-0.10
2018-12-18T06:46:04.247Z,-0.10
2018-12-18T06:48:32.722Z,-0.10
2018-12-18T06:51:01.169Z,-0.10
2018-12-18T06:53:29.678Z,-0.20
2018-12-18T06:55:58.234Z,-0.20
2018-12-18T06:58:26.708Z,-0.20
2018-12-18T07:00:55.183Z,-0.20
2018-12-18T07:03:23.671Z,-0.20
2018-12-18T07:05:52.133Z,-0.20
2018-12-18T07:08:20.602Z,-0.20
2018-12-18T07:10:49.207Z,-0.10
2018-12-18T07:13:17.687Z,-0.20
2018-12-18T07:15:46.154Z,-0.20
2018-12-18T07:18:14.635Z,-0.10
2018-12-18T07:20:43.105Z,-0.10
2018-12-18T07:23:11.636Z,-0.10
2018-12-18T07:25:40.102Z,-0.20
2018-12-18T07:28:08.565Z,-0.20
2018-12-18T07:30:37.063Z,-0.30
2018-12-18T07:33:05.562Z,-0.10
2018-12-18T07:35:34.033Z,-0.10
2018-12-18T07:38:02.498Z,-0.10
2018-12-18T07:40:30.971Z,-0.10
2018-12-18T07:42:59.455Z,-0.20
2018-12-18T07:45:27.913Z,-0.10
2018-12-18T07:47:56.350Z,-0.10
2018-12-18T07:50:24.813Z,-0.10
2018-12-18T07:52:53.278Z,-0.10
2018-12-18T07:55:21.770Z,-0.10
2018-12-18T07:57:50.233Z,-0.10
2018-12-18T08:00:18.703Z,-0.10
2018-12-18T08:02:47.177Z,-0.10
2018-12-18T08:05:15.629Z,0.00
2018-12-18T08:07:44.079Z,0.00
2018-12-18T08:10:12.545Z,0.00
2018-12-18T08:12:41.028Z,0.10
2018-12-18T08:15:09.506Z,0.10
2018-12-18T08:17:37.962Z,0.10
2018-12-18T08:20:07.054Z,0.10
2018-12-18T08:22:35.534Z,0.10
2018-12-18T08:25:04.727Z,0.10
2018-12-18T08:27:33.195Z,0.10
2018-12-18T08:30:01.674Z,0.10
2018-12-18T08:32:30.122Z,0.10
2018-12-18T08:34:58.593Z,0.20
2018-12-18T08:37:27.062Z,0.20
2018-12-18T08:39:55.523Z,0.20
2018-12-18T08:42:23.998Z,0.30
2018-12-18T08:44:52.465Z,0.30
2018-12-18T08:47:20.934Z,0.20
2018-12-18T08:49:49.406Z,0.30
2018-12-18T08:52:17.882Z,0.30
2018-12-18T08:54:46.362Z,0.20
2018-12-18T08:57:14.826Z,0.30
2018-12-18T08:59:43.295Z,0.30
2018-12-18T09:02:11.762Z,0.30
2018-12-18T09:04:40.226Z,0.30
2018-12-18T09:07:08.708Z,0.40
2018-12-18T09:09:37.169Z,0.40
2018-12-18T09:12:05.636Z,0.30
2018-12-18T09:14:34.097Z,0.30
2018-12-18T09:17:03.776Z,0.40
2018-12-18T09:19:32.246Z,0.40
2018-12-18T09:22:01.178Z,0.40
2018-12-18T09:24:29.639Z,0.40
2018-12-18T09:26:58.107Z,0.40
2018-12-18T09:29:26.614Z,0.50
2018-12-18T09:31:55.102Z,0.40
2018-12-18T09:34:23.581Z,0.40
2018-12-18T09:36:52.049Z,0.40
2018-12-18T09:39:24.718Z,0.40
2018-12-18T09:41:57.393Z,0.40
2018-12-18T09:44:25.865Z,0.50
2018-12-18T09:46:54.334Z,0.50
2018-12-18T09:49:22.934Z,0.40
2018-12-18T09:51:51.401Z,0.40
2018-12-18T09:54:19.878Z,0.50
2018-12-18T09:56:52.158Z,0.50
2018-12-18T09:59:20.642Z,0.50
2018-12-18T10:01:49.110Z,0.60
2018-12-18T10:04:17.598Z,0.60
2018-12-18T10:06:46.073Z,0.50
2018-12-18T10:09:14.576Z,0.60
2018-12-18T10:11:43.057Z,0.60
2018-12-18T10:14:11.577Z,0.70
2018-12-18T10:16:40.066Z,0.60
2018-12-18T10:19:08.548Z,0.50
2018-12-18T10:21:37.162Z,0.50
2018-12-18T10:24:05.753Z,0.50
2018-12-18T10:26:34.219Z,0.60
2018-12-18T10:29:02.747Z,0.60
2018-12-18T10:31:31.642Z,0.60
2018-12-18T10:34:00.262Z,0.60
2018-12-18T10:36:28.729Z,0.70
2018-12-18T10:38:57.186Z,0.80
2018-12-18T10:41:25.654Z,0.70
2018-12-18T10:43:54.118Z,0.80
2018-12-18T10:46:22.586Z,0.80
2018-12-18T10:48:51.283Z,0.80
2018-12-18T10:51:19.747Z,0.80
2018-12-18T10:53:48.213Z,0.70
2018-12-18T10:56:16.669Z,0.70
2018-12-18T10:58:45.122Z,0.70
2018-12-18T11:01:16.293Z,0.80
2018-12-18T11:03:45.062Z,0.90
2018-12-18T11:06:13.518Z,0.90
2018-12-18T11:08:41.994Z,1.00
2018-12-18T11:11:10.460Z,1.00
2018-12-18T11:13:38.915Z,0.90
2018-12-18T11:16:07.571Z,1.00
2018-12-18T11:18:36.038Z,1.00
2018-12-18T11:21:04.513Z,1.00
2018-12-18T11:23:32.965Z,1.10
2018-12-18T11:26:01.442Z,1.20
2018-12-18T11:28:29.918Z,1.20
2018-12-18T11:30:58.684Z,1.20
2018-12-18T11:33:27.158Z,1.20
2018-12-18T11:35:55.633Z,1.20
2018-12-18T11:38:24.110Z,1.20
2018-12-18T11:40:52.565Z,1.20
2018-12-18T11:43:21.071Z,1.20
2018-12-18T11:45:49.537Z,1.10
2018-12-18T11:48:18.001Z,1.00
2018-12-18T11:50:46.458Z,1.00
2018-12-18T11:53:14.961Z,1.00
2018-12-18T11:55:43.438Z,0.90
2018-12-18T11:58:12.359Z,1.00
2018-12-18T12:00:40.858Z,1.00
2018-12-18T12:03:09.340Z,1.00
2018-12-18T12:05:38.182Z,1.00
2018-12-18T12:08:06.701Z,1.00
2018-12-18T12:10:35.162Z,1.00
2018-12-18T12:13:03.859Z,0.90
2018-12-18T12:15:32.334Z,1.00
2018-12-18T12:18:00.926Z,1.00
2018-12-18T12:20:29.413Z,1.00
2018-12-18T12:22:57.938Z,1.00
2018-12-18T12:25:26.445Z,1.00
2018-12-18T12:28:00.211Z,1.00
2018-12-18T12:30:28.805Z,1.00
2018-12-18T12:32:57.262Z,0.90
2018-12-18T12:35:25.738Z,1.00
2018-12-18T12:37:54.209Z,0.90
2018-12-18T12:40:22.674Z,0.90
2018-12-18T12:42:51.137Z,0.80
2018-12-18T12:45:19.693Z,0.90
2018-12-18T12:47:52.197Z,0.90
2018-12-18T12:50:20.757Z,0.90
2018-12-18T12:52:49.282Z,0.90
2018-12-18T12:55:17.738Z,0.90
2018-12-18T12:57:46.214Z,0.90
2018-12-18T13:00:14.706Z,0.90
2018-12-18T13:02:43.169Z,0.80
2018-12-18T13:05:11.640Z,0.80
2018-12-18T13:07:40.115Z,0.80
2018-12-18T13:10:08.642Z,0.90
2018-12-18T13:12:37.118Z,0.90
2018-12-18T13:15:06.698Z,0.80
2018-12-18T13:17:35.210Z,0.80
2018-12-18T13:20:04.198Z,0.80
2018-12-18T13:22:32.662Z,0.80
2018-12-18T13:25:01.130Z,0.80
2018-12-18T13:27:29.630Z,0.80
2018-12-18T13:29:58.638Z,0.90
2018-12-18T13:32:27.099Z,0.80
2018-12-18T13:34:56.119Z,0.90
2018-12-18T13:37:24.748Z,0.90
2018-12-18T13:39:53.214Z,0.90
2018-12-18T13:42:21.718Z,0.90
2018-12-18T13:44:50.178Z,0.80
2018-12-18T13:47:18.649Z,0.80
2018-12-18T13:49:47.120Z,0.70
2018-12-18T13:52:15.636Z,0.70
2018-12-18T13:54:44.114Z,0.70
2018-12-18T13:57:12.574Z,0.70
2018-12-18T13:59:41.042Z,0.70
2018-12-18T14:02:09.538Z,0.70
2018-12-18T14:04:38.026Z,0.70
2018-12-18T14:07:06.488Z,0.70
2018-12-18T14:09:36.695Z,0.80
2018-12-18T14:12:05.292Z,0.80
2018-12-18T14:14:33.762Z,0.70
2018-12-18T14:17:02.366Z,0.80
2018-12-18T14:19:30.858Z,0.70
2018-12-18T14:21:59.326Z,0.80
2018-12-18T14:24:27.785Z,0.80
2018-12-18T14:26:56.269Z,0.70
2018-12-18T14:29:24.743Z,0.70
2018-12-18T14:31:53.320Z,0.80
2018-12-18T14:34:21.802Z,0.80
2018-12-18T14:36:56.053Z,0.80
2018-12-18T14:39:20.753Z,0.70
2018-12-18T14:41:49.285Z,0.80
2018-12-18T14:44:18.077Z,0.80
2018-12-18T14:46:46.538Z,0.90
2018-12-18T14:49:14.996Z,0.80
2018-12-18T14:51:43.462Z,0.80
2018-12-18T14:54:12.370Z,0.90
2018-12-18T14:56:40.966Z,0.80
2018-12-18T14:59:09.519Z,0.80
2018-12-18T15:01:37.990Z,0.80
2018-12-18T15:04:06.460Z,0.90
2018-12-18T15:06:34.949Z,0.90
2018-12-18T15:09:05.274Z,0.90
2018-12-18T15:11:33.741Z,0.90
2018-12-18T15:14:02.210Z,0.90
2018-12-18T15:16:30.674Z,0.80
2018-12-18T15:18:59.147Z,0.80
2018-12-18T15:21:27.636Z,0.70
2018-12-18T15:23:56.109Z,0.70
2018-12-18T15:26:24.581Z,0.70
2018-12-18T15:28:53.039Z,0.70
2018-12-18T15:31:21.509Z,0.80
2018-12-18T15:33:50.025Z,0.70
2018-12-18T15:36:18.499Z,0.70
2018-12-18T15:38:47.013Z,0.60
2018-12-18T15:41:15.478Z,0.70
2018-12-18T15:43:43.950Z,0.70
2018-12-18T15:46:12.534Z,0.70
2018-12-18T15:48:40.986Z,0.70
2018-12-18T15:51:09.457Z,0.70
2018-12-18T15:53:37.980Z,0.70
2018-12-18T15:56:06.438Z,0.80
2018-12-18T15:58:34.898Z,0.70
2018-12-18T16:01:03.374Z,0.70
2018-12-18T16:03:31.838Z,0.70
2018-12-18T16:06:00.294Z,0.70
2018-12-18T16:08:28.831Z,0.70
2018-12-18T16:10:57.286Z,0.70
2018-12-18T16:13:25.741Z,0.70
2018-12-18T16:15:54.203Z,0.70
2018-12-18T16:18:22.692Z,0.70
2018-12-18T16:20:51.303Z,0.70
2018-12-18T16:23:19.783Z,0.70
2018-12-18T16:25:48.309Z,0.70
2018-12-18T16:28:16.794Z,0.80
2018-12-18T16:30:45.298Z,0.80
2018-12-18T16:33:13.764Z,0.80
2018-12-18T16:35:46.156Z,0.70
2018-12-18T16:38:12.691Z,0.80
2018-12-18T16:40:41.147Z,0.80
2018-12-18T16:43:09.998Z,0.80
2018-12-18T16:45:38.455Z,0.70
2018-12-18T16:48:06.918Z,0.70
2018-12-18T16:50:35.371Z,0.70
2018-12-18T16:53:03.830Z,0.70
2018-12-18T16:55:32.309Z,0.70
2018-12-18T16:58:00.777Z,0.70
2018-12-18T17:00:29.230Z,0.70
2018-12-18T17:02:57.689Z,0.80
2018-12-18T17:05:26.141Z,0.70
2018-12-18T17:07:54.606Z,0.70
2018-12-18T17:10:23.061Z,0.70
2018-12-18T17:12:56.458Z,0.70
2018-12-18T17:15:25.418Z,0.70
2018-12-18T17:17:53.887Z,0.70
2018-12-18T17:20:22.390Z,0.70
2018-12-18T17:22:50.851Z,0.70
2018-12-18T17:25:19.395Z,0.70
2018-12-18T17:27:47.858Z,0.70
2018-12-18T17:30:16.346Z,0.70
2018-12-18T17:32:44.798Z,0.70
2018-12-18T17:35:13.269Z,0.70
2018-12-18T17:37:41.719Z,0.80
2018-12-18T17:40:10.201Z,0.90
2018-12-18T17:42:38.670Z,0.90
2018-12-18T17:45:08.527Z,1.00
2018-12-18T17:47:37.012Z,0.90
2018-12-18T17:50:07.552Z,0.90
2018-12-18T17:52:36.044Z,0.90
2018-12-18T17:55:04.634Z,0.90
2018-12-18T17:57:33.113Z,0.80
2018-12-18T18:00:01.598Z,0.90
2018-12-18T18:02:30.047Z,0.80
2018-12-18T18:04:58.507Z,0.80
2018-12-18T18:07:26.984Z,0.60
2018-12-18T18:09:55.438Z,0.60
2018-12-18T18:12:29.782Z,0.50
2018-12-18T18:14:54.405Z,0.50
2018-12-18T18:17:22.893Z,0.60
2018-12-18T18:19:51.366Z,0.60
2018-12-18T18:22:19.990Z,0.70
2018-12-18T18:24:48.459Z,0.70
2018-12-18T18:27:16.932Z,0.70
2018-12-18T18:29:45.404Z,0.70
2018-12-18T18:32:13.869Z,0.60
2018-12-18T18:34:42.345Z,0.50
2018-12-18T18:37:10.828Z,0.50
2018-12-18T18:39:39.283Z,0.50
2018-12-18T18:42:07.749Z,0.40
2018-12-18T18:44:36.246Z,0.40
2018-12-18T18:47:04.789Z,0.50
2018-12-18T18:49:33.306Z,0.50
2018-12-18T18:52:01.758Z,0.50
2018-12-18T18:54:30.217Z,0.50
2018-12-18T18:56:58.706Z,0.60
2018-12-18T18:59:27.170Z,0.60
2018-12-18T19:01:55.649Z,0.60
2018-12-18T19:04:24.123Z,0.60
2018-12-18T19:06:52.606Z,0.50
2018-12-18T19:09:21.066Z,0.40
2018-12-18T19:11:49.539Z,0.30
2018-12-18T19:14:18.018Z,0.30
2018-12-18T19:16:46.489Z,0.30
2018-12-18T19:19:14.942Z,0.20
2018-12-18T19:21:43.770Z,0.10
2018-12-18T19:24:12.230Z,0.10
2018-12-18T19:26:40.694Z,0.10
2018-12-18T19:29:09.154Z,0.20
2018-12-18T19:31:37.602Z,0.20
2018-12-18T19:34:06.109Z,0.20
2018-12-18T19:36:34.838Z,0.20
2018-12-18T19:39:05.450Z,0.20
2018-12-18T19:41:33.910Z,0.10
2018-12-18T19:44:02.386Z,0.10
2018-12-18T19:46:30.849Z,0.10
2018-12-18T19:48:59.326Z,0.10
2018-12-18T19:51:27.826Z,0.10
2018-12-18T19:53:56.297Z,0.00
2018-12-18T19:56:24.762Z,0.00
2018-12-18T19:58:53.329Z,0.00
2018-12-18T20:01:21.842Z,-0.10
2018-12-18T20:03:50.437Z,0.00
2018-12-18T20:06:19.051Z,-0.10
2018-12-18T20:15:31.534Z,-0.20
2018-12-18T20:18:00.017Z,-0.10
2018-12-18T20:20:28.525Z,0.00
2018-12-18T20:22:56.999Z,-0.10
2018-12-18T20:25:25.478Z,-0.20
2018-12-18T20:27:53.946Z,-0.20
2018-12-18T20:30:22.418Z,-0.30
2018-12-18T20:32:50.934Z,-0.30
2018-12-18T20:35:19.402Z,-0.20
2018-12-18T20:37:47.896Z,-0.20
2018-12-18T20:40:16.461Z,-0.20
2018-12-18T20:42:44.915Z,-0.30
2018-12-18T20:45:13.412Z,-0.20
2018-12-18T20:47:41.862Z,-0.20
2018-12-18T20:50:10.658Z,-0.20
2018-12-18T20:52:39.126Z,-0.20
2018-12-18T20:55:07.618Z,-0.30
2018-12-18T20:57:36.221Z,-0.40
2018-12-18T21:00:06.290Z,-0.30
2018-12-18T21:02:35.411Z,-0.30
2018-12-18T21:05:04.473Z,-0.40
2018-12-18T21:07:32.978Z,-0.40
2018-12-18T21:10:01.455Z,-0.40
2018-12-18T21:12:29.921Z,-0.40
2018-12-18T21:15:00.834Z,-0.50
2018-12-18T21:17:28.879Z,-0.60
2018-12-18T21:19:57.342Z,-0.70
2018-12-18T21:22:25.815Z,-0.60
2018-12-18T21:24:54.414Z,-0.70
2018-12-18T21:27:22.865Z,-0.70
2018-12-18T21:29:51.346Z,-0.70
2018-12-18T21:32:19.833Z,-0.70
2018-12-18T21:34:48.336Z,-0.80
2018-12-18T21:37:16.798Z,-0.80
2018-12-18T21:39:45.261Z,-0.90
2018-12-18T21:42:13.878Z,-1.00
2018-12-18T21:44:42.466Z,-1.00
2018-12-18T21:47:10.938Z,-1.00
2018-12-18T21:49:39.402Z,-1.10
2018-12-18T21:52:07.870Z,-1.10
2018-12-18T21:54:36.322Z,-1.10
2018-12-18T21:57:04.805Z,-1.10
2018-12-18T21:59:33.268Z,-1.20
2018-12-18T22:02:02.303Z,-1.30
2018-12-18T22:04:30.784Z,-1.40
2018-12-18T22:06:59.250Z,-1.50
2018-12-18T22:09:27.710Z,-1.40
2018-12-18T22:11:56.353Z,-1.40
2018-12-18T22:14:24.818Z,-1.40
2018-12-18T22:16:53.288Z,-1.50
2018-12-18T22:19:21.746Z,-1.70
2018-12-18T22:23:19.690Z,-1.70
2018-12-18T22:25:48.154Z,-1.70
2018-12-18T22:28:16.666Z,-1.70
2018-12-18T22:30:45.145Z,-1.90
2018-12-18T22:33:13.606Z,-1.80
2018-12-18T22:35:42.066Z,-1.80
2018-12-18T22:38:10.525Z,-1.80
2018-12-18T22:40:39.246Z,-1.90
2018-12-18T22:43:07.703Z,-1.90
2018-12-18T22:45:36.168Z,-2.00
2018-12-18T22:48:04.642Z,-1.90
2018-12-18T22:50:33.118Z,-2.00
2018-12-18T22:53:01.577Z,-2.20
2018-12-18T22:55:30.026Z,-2.20
2018-12-18T22:57:58.505Z,-2.30
2018-12-18T23:00:32.878Z,-2.30
2018-12-18T23:03:01.530Z,-2.40
2018-12-18T23:05:30.032Z,-2.40
2018-12-18T23:07:58.494Z,-2.30
2018-12-18T23:10:26.950Z,-2.50
2018-12-18T23:12:55.415Z,-2.50
2018-12-18T23:15:23.882Z,-2.50
2018-12-18T23:17:52.620Z,-2.60
2018-12-18T23:20:21.114Z,-2.70
2018-12-18T23:22:49.570Z,-2.80
2018-12-18T23:25:18.031Z,-2.80
2018-12-18T23:27:46.497Z,-2.80
2018-12-18T23:30:14.981Z,-2.90
2018-12-18T23:32:43.445Z,-2.90
2018-12-18T23:35:11.909Z,-2.90
2018-12-18T23:37:40.405Z,-2.90
2018-12-18T23:40:09.022Z,-3.00
2018-12-18T23:42:37.503Z,-3.10
2018-12-18T23:45:05.994Z,-3.10
2018-12-18T23:47:34.450Z,-3.10
2018-12-18T23:50:03.225Z,-3.10
2018-12-18T23:52:31.697Z,-3.10
2018-12-18T23:55:00.466Z,-3.10
2018-12-18T23:57:28.925Z,-3.00
2018-12-18T23:59:57.370Z,-3.00
